sensor_id;sensor_type;location;lat;lon;timestamp;P1;durP1;ratioP1;P2;durP2;ratioP2
52534;SDS011;38443;53.164;5.802;2022-11-20T00:01:48;12.25;;;6.68;;
52534;SDS011;38443;53.164;5.802;2022-11-20T00:04:14;9.43;;;5.53;;
52534;SDS011;38443;53.164;5.802;2022-11-20T00:06:39;9.50;;;5.35;;
52534;SDS011;38443;53.164;5.802;2022-11-20T00:09:05;11.85;;;5.82;;
52534;SDS011;38443;53.164;5.802;2022-11-20T00:11:31;14.48;;;6.45;;
52534;SDS011;38443;53.164;5.802;2022-11-20T00:13:58;9.30;;;5.68;;
52534;SDS011;38443;53.164;5.802;2022-11-20T00:16:26;16.13;;;6.90;;
52534;SDS011;38443;53.164;5.802;2022-11-20T00:18:53;13.35;;;5.28;;
52534;SDS011;38443;53.164;5.802;2022-11-20T00:21:23;9.75;;;5.90;;
52534;SDS011;38443;53.164;5.802;2022-11-20T00:23:51;10.10;;;6.75;;
52534;SDS011;38443;53.164;5.802;2022-11-20T00:26:18;10.52;;;6.10;;
52534;SDS011;38443;53.164;5.802;2022-11-20T00:28:48;10.82;;;6.00;;
52534;SDS011;38443;53.164;5.802;2022-11-20T00:31:15;9.93;;;5.50;;
52534;SDS011;38443;53.164;5.802;2022-11-20T00:33:42;12.95;;;5.55;;
52534;SDS011;38443;53.164;5.802;2022-11-20T00:36:16;12.48;;;5.40;;
52534;SDS011;38443;53.164;5.802;2022-11-20T00:38:42;10.85;;;6.45;;
52534;SDS011;38443;53.164;5.802;2022-11-20T00:41:09;15.80;;;7.22;;
52534;SDS011;38443;53.164;5.802;2022-11-20T00:43:37;11.10;;;5.68;;
52534;SDS011;38443;53.164;5.802;2022-11-20T00:46:06;11.05;;;6.18;;
52534;SDS011;38443;53.164;5.802;2022-11-20T00:48:33;10.50;;;5.72;;
52534;SDS011;38443;53.164;5.802;2022-11-20T00:50:59;13.43;;;5.97;;
52534;SDS011;38443;53.164;5.802;2022-11-20T00:53:24;12.98;;;5.63;;
52534;SDS011;38443;53.164;5.802;2022-11-20T00:58:24;13.40;;;6.55;;
52534;SDS011;38443;53.164;5.802;2022-11-20T01:00:53;17.45;;;7.00;;
52534;SDS011;38443;53.164;5.802;2022-11-20T01:03:26;16.98;;;6.78;;
52534;SDS011;38443;53.164;5.802;2022-11-20T01:05:51;16.48;;;7.85;;
52534;SDS011;38443;53.164;5.802;2022-11-20T01:10:42;11.95;;;5.35;;
52534;SDS011;38443;53.164;5.802;2022-11-20T01:13:07;18.27;;;6.10;;
52534;SDS011;38443;53.164;5.802;2022-11-20T01:15:51;13.75;;;6.68;;
52534;SDS011;38443;53.164;5.802;2022-11-20T01:18:16;14.50;;;5.70;;
52534;SDS011;38443;53.164;5.802;2022-11-20T01:20:42;14.98;;;6.38;;
52534;SDS011;38443;53.164;5.802;2022-11-20T01:25:33;16.27;;;7.50;;
52534;SDS011;38443;53.164;5.802;2022-11-20T01:27:59;8.43;;;5.38;;
52534;SDS011;38443;53.164;5.802;2022-11-20T01:30:25;11.73;;;6.95;;
52534;SDS011;38443;53.164;5.802;2022-11-20T01:32:50;12.43;;;6.73;;
52534;SDS011;38443;53.164;5.802;2022-11-20T01:35:15;14.63;;;7.10;;
52534;SDS011;38443;53.164;5.802;2022-11-20T01:37:41;12.60;;;6.15;;
52534;SDS011;38443;53.164;5.802;2022-11-20T01:40:06;13.88;;;5.55;;
52534;SDS011;38443;53.164;5.802;2022-11-20T01:42:32;13.18;;;6.15;;
52534;SDS011;38443;53.164;5.802;2022-11-20T01:48:15;13.32;;;6.22;;
52534;SDS011;38443;53.164;5.802;2022-11-20T01:50:43;11.13;;;6.20;;
52534;SDS011;38443;53.164;5.802;2022-11-20T01:53:10;15.25;;;6.90;;
52534;SDS011;38443;53.164;5.802;2022-11-20T01:55:41;13.98;;;6.00;;
52534;SDS011;38443;53.164;5.802;2022-11-20T01:58:12;10.05;;;5.53;;
52534;SDS011;38443;53.164;5.802;2022-11-20T02:00:38;16.85;;;6.68;;
52534;SDS011;38443;53.164;5.802;2022-11-20T02:03:07;11.30;;;6.22;;
52534;SDS011;38443;53.164;5.802;2022-11-20T02:08:18;14.38;;;5.57;;
52534;SDS011;38443;53.164;5.802;2022-11-20T02:10:44;8.82;;;6.22;;
52534;SDS011;38443;53.164;5.802;2022-11-20T02:13:10;12.90;;;6.30;;
52534;SDS011;38443;53.164;5.802;2022-11-20T02:15:54;12.10;;;5.63;;
52534;SDS011;38443;53.164;5.802;2022-11-20T02:18:23;15.60;;;7.72;;
52534;SDS011;38443;53.164;5.802;2022-11-20T02:20:50;12.43;;;6.75;;
52534;SDS011;38443;53.164;5.802;2022-11-20T02:25:56;14.07;;;6.10;;
52534;SDS011;38443;53.164;5.802;2022-11-20T02:28:24;14.13;;;6.28;;
52534;SDS011;38443;53.164;5.802;2022-11-20T02:30:50;11.63;;;7.10;;
52534;SDS011;38443;53.164;5.802;2022-11-20T02:33:15;13.18;;;5.93;;
52534;SDS011;38443;53.164;5.802;2022-11-20T02:35:44;10.50;;;6.53;;
52534;SDS011;38443;53.164;5.802;2022-11-20T02:38:11;10.40;;;5.65;;
52534;SDS011;38443;53.164;5.802;2022-11-20T02:40:37;14.75;;;6.53;;
52534;SDS011;38443;53.164;5.802;2022-11-20T02:43:03;11.68;;;6.18;;
52534;SDS011;38443;53.164;5.802;2022-11-20T02:45:28;13.82;;;6.13;;
52534;SDS011;38443;53.164;5.802;2022-11-20T02:47:53;19.75;;;7.55;;
52534;SDS011;38443;53.164;5.802;2022-11-20T02:50:19;12.45;;;5.78;;
52534;SDS011;38443;53.164;5.802;2022-11-20T02:55:10;12.68;;;6.38;;
52534;SDS011;38443;53.164;5.802;2022-11-20T03:02:45;13.23;;;6.10;;
52534;SDS011;38443;53.164;5.802;2022-11-20T03:07:36;11.77;;;6.63;;
52534;SDS011;38443;53.164;5.802;2022-11-20T03:10:01;12.90;;;6.13;;
52534;SDS011;38443;53.164;5.802;2022-11-20T03:14:53;8.95;;;5.90;;
52534;SDS011;38443;53.164;5.802;2022-11-20T03:17:19;9.85;;;4.88;;
52534;SDS011;38443;53.164;5.802;2022-11-20T03:19:44;13.48;;;6.53;;
52534;SDS011;38443;53.164;5.802;2022-11-20T03:22:10;9.98;;;5.35;;
52534;SDS011;38443;53.164;5.802;2022-11-20T03:27:00;10.70;;;5.40;;
52534;SDS011;38443;53.164;5.802;2022-11-20T03:29:26;12.45;;;6.70;;
52534;SDS011;38443;53.164;5.802;2022-11-20T03:31:51;16.33;;;7.03;;
52534;SDS011;38443;53.164;5.802;2022-11-20T03:34:16;11.00;;;6.45;;
52534;SDS011;38443;53.164;5.802;2022-11-20T03:36:42;12.20;;;5.93;;
52534;SDS011;38443;53.164;5.802;2022-11-20T03:39:07;17.50;;;7.22;;
52534;SDS011;38443;53.164;5.802;2022-11-20T03:41:36;10.88;;;5.07;;
52534;SDS011;38443;53.164;5.802;2022-11-20T03:44:04;10.13;;;5.55;;
52534;SDS011;38443;53.164;5.802;2022-11-20T03:46:31;15.48;;;7.03;;
52534;SDS011;38443;53.164;5.802;2022-11-20T03:48:56;8.93;;;5.63;;
52534;SDS011;38443;53.164;5.802;2022-11-20T03:51:26;12.70;;;5.55;;
52534;SDS011;38443;53.164;5.802;2022-11-20T03:53:54;10.20;;;5.60;;
52534;SDS011;38443;53.164;5.802;2022-11-20T03:56:26;14.48;;;5.45;;
52534;SDS011;38443;53.164;5.802;2022-11-20T03:58:53;13.30;;;6.30;;
52534;SDS011;38443;53.164;5.802;2022-11-20T04:01:20;14.13;;;6.55;;
52534;SDS011;38443;53.164;5.802;2022-11-20T04:03:48;12.25;;;5.60;;
52534;SDS011;38443;53.164;5.802;2022-11-20T04:06:15;12.85;;;6.28;;
52534;SDS011;38443;53.164;5.802;2022-11-20T04:08:42;11.15;;;6.80;;
52534;SDS011;38443;53.164;5.802;2022-11-20T04:13:47;9.77;;;5.43;;
52534;SDS011;38443;53.164;5.802;2022-11-20T04:16:15;12.15;;;5.53;;
52534;SDS011;38443;53.164;5.802;2022-11-20T04:21:06;9.85;;;5.35;;
52534;SDS011;38443;53.164;5.802;2022-11-20T04:26:15;12.15;;;6.32;;
52534;SDS011;38443;53.164;5.802;2022-11-20T04:28:41;10.75;;;6.05;;
52534;SDS011;38443;53.164;5.802;2022-11-20T04:31:10;9.65;;;5.78;;
52534;SDS011;38443;53.164;5.802;2022-11-20T04:33:40;14.02;;;6.85;;
52534;SDS011;38443;53.164;5.802;2022-11-20T04:36:07;7.43;;;5.40;;
52534;SDS011;38443;53.164;5.802;2022-11-20T04:38:32;10.18;;;6.07;;
52534;SDS011;38443;53.164;5.802;2022-11-20T04:40:59;10.70;;;5.40;;
52534;SDS011;38443;53.164;5.802;2022-11-20T04:43:25;12.77;;;6.57;;
52534;SDS011;38443;53.164;5.802;2022-11-20T04:45:51;12.02;;;6.35;;
52534;SDS011;38443;53.164;5.802;2022-11-20T04:48:17;12.02;;;5.75;;
52534;SDS011;38443;53.164;5.802;2022-11-20T04:50:43;8.20;;;5.22;;
52534;SDS011;38443;53.164;5.802;2022-11-20T04:55:36;12.18;;;5.22;;
52534;SDS011;38443;53.164;5.802;2022-11-20T04:58:02;9.00;;;4.82;;
52534;SDS011;38443;53.164;5.802;2022-11-20T05:00:27;9.20;;;5.13;;
52534;SDS011;38443;53.164;5.802;2022-11-20T05:02:53;11.52;;;6.00;;
52534;SDS011;38443;53.164;5.802;2022-11-20T05:05:19;17.27;;;6.05;;
52534;SDS011;38443;53.164;5.802;2022-11-20T05:07:44;11.80;;;5.35;;
52534;SDS011;38443;53.164;5.802;2022-11-20T05:12:34;9.40;;;5.53;;
52534;SDS011;38443;53.164;5.802;2022-11-20T05:15:00;9.75;;;5.53;;
52534;SDS011;38443;53.164;5.802;2022-11-20T05:17:25;12.20;;;6.47;;
52534;SDS011;38443;53.164;5.802;2022-11-20T05:19:50;8.15;;;5.82;;
52534;SDS011;38443;53.164;5.802;2022-11-20T05:22:16;10.95;;;6.47;;
52534;SDS011;38443;53.164;5.802;2022-11-20T05:27:06;8.95;;;4.05;;
52534;SDS011;38443;53.164;5.802;2022-11-20T05:29:31;10.77;;;5.70;;
52534;SDS011;38443;53.164;5.802;2022-11-20T05:31:57;9.73;;;5.73;;
52534;SDS011;38443;53.164;5.802;2022-11-20T05:34:22;7.85;;;5.30;;
52534;SDS011;38443;53.164;5.802;2022-11-20T05:36:47;9.80;;;5.75;;
52534;SDS011;38443;53.164;5.802;2022-11-20T05:39:13;11.57;;;5.57;;
52534;SDS011;38443;53.164;5.802;2022-11-20T05:41:38;9.88;;;5.70;;
52534;SDS011;38443;53.164;5.802;2022-11-20T05:46:29;9.25;;;4.53;;
52534;SDS011;38443;53.164;5.802;2022-11-20T05:51:20;8.85;;;5.85;;
52534;SDS011;38443;53.164;5.802;2022-11-20T05:53:45;9.30;;;5.00;;
52534;SDS011;38443;53.164;5.802;2022-11-20T05:56:12;8.30;;;5.43;;
52534;SDS011;38443;53.164;5.802;2022-11-20T05:58:40;12.15;;;6.43;;
52534;SDS011;38443;53.164;5.802;2022-11-20T06:03:32;10.52;;;5.03;;
52534;SDS011;38443;53.164;5.802;2022-11-20T06:08:24;12.00;;;6.32;;
52534;SDS011;38443;53.164;5.802;2022-11-20T06:10:49;12.98;;;5.35;;
52534;SDS011;38443;53.164;5.802;2022-11-20T06:15:39;6.78;;;4.82;;
52534;SDS011;38443;53.164;5.802;2022-11-20T06:18:05;11.27;;;5.67;;
52534;SDS011;38443;53.164;5.802;2022-11-20T06:20:30;16.73;;;6.18;;
52534;SDS011;38443;53.164;5.802;2022-11-20T06:25:21;7.88;;;5.20;;
52534;SDS011;38443;53.164;5.802;2022-11-20T06:27:46;12.35;;;5.72;;
52534;SDS011;38443;53.164;5.802;2022-11-20T06:32:37;9.23;;;5.03;;
52534;SDS011;38443;53.164;5.802;2022-11-20T06:35:02;8.45;;;4.95;;
52534;SDS011;38443;53.164;5.802;2022-11-20T06:39:53;12.68;;;6.13;;
52534;SDS011;38443;53.164;5.802;2022-11-20T06:42:18;11.13;;;5.47;;
52534;SDS011;38443;53.164;5.802;2022-11-20T06:47:09;11.10;;;5.45;;
52534;SDS011;38443;53.164;5.802;2022-11-20T06:51:59;11.40;;;6.20;;
52534;SDS011;38443;53.164;5.802;2022-11-20T06:54:25;9.98;;;5.07;;
52534;SDS011;38443;53.164;5.802;2022-11-20T06:56:50;10.68;;;5.72;;
52534;SDS011;38443;53.164;5.802;2022-11-20T06:59:15;12.40;;;7.20;;
52534;SDS011;38443;53.164;5.802;2022-11-20T07:04:06;11.63;;;5.95;;
52534;SDS011;38443;53.164;5.802;2022-11-20T07:06:32;11.43;;;5.97;;
52534;SDS011;38443;53.164;5.802;2022-11-20T07:08:57;10.03;;;4.97;;
52534;SDS011;38443;53.164;5.802;2022-11-20T07:11:23;15.10;;;6.47;;
52534;SDS011;38443;53.164;5.802;2022-11-20T07:13:49;12.30;;;6.32;;
52534;SDS011;38443;53.164;5.802;2022-11-20T07:18:39;13.50;;;6.33;;
52534;SDS011;38443;53.164;5.802;2022-11-20T07:21:08;9.73;;;6.00;;
52534;SDS011;38443;53.164;5.802;2022-11-20T07:23:35;15.32;;;6.30;;
52534;SDS011;38443;53.164;5.802;2022-11-20T07:26:07;11.13;;;5.65;;
52534;SDS011;38443;53.164;5.802;2022-11-20T07:28:34;11.95;;;6.30;;
52534;SDS011;38443;53.164;5.802;2022-11-20T07:31:00;12.52;;;6.45;;
52534;SDS011;38443;53.164;5.802;2022-11-20T07:35:51;13.32;;;6.05;;
52534;SDS011;38443;53.164;5.802;2022-11-20T07:38:16;11.30;;;6.50;;
52534;SDS011;38443;53.164;5.802;2022-11-20T07:43:07;13.70;;;6.75;;
52534;SDS011;38443;53.164;5.802;2022-11-20T07:45:32;13.70;;;7.07;;
52534;SDS011;38443;53.164;5.802;2022-11-20T07:50:23;14.15;;;6.65;;
52534;SDS011;38443;53.164;5.802;2022-11-20T07:52:48;11.27;;;6.50;;
52534;SDS011;38443;53.164;5.802;2022-11-20T07:55:13;15.82;;;7.07;;
52534;SDS011;38443;53.164;5.802;2022-11-20T07:57:39;12.48;;;7.22;;
52534;SDS011;38443;53.164;5.802;2022-11-20T08:02:36;14.35;;;6.03;;
52534;SDS011;38443;53.164;5.802;2022-11-20T08:05:04;13.50;;;6.95;;
52534;SDS011;38443;53.164;5.802;2022-11-20T08:07:34;13.00;;;7.70;;
52534;SDS011;38443;53.164;5.802;2022-11-20T08:10:03;16.00;;;8.45;;
52534;SDS011;38443;53.164;5.802;2022-11-20T08:12:29;15.70;;;7.10;;
52534;SDS011;38443;53.164;5.802;2022-11-20T08:15:27;17.33;;;7.18;;
52534;SDS011;38443;53.164;5.802;2022-11-20T08:17:58;24.25;;;7.30;;
52534;SDS011;38443;53.164;5.802;2022-11-20T08:20:24;10.55;;;6.97;;
52534;SDS011;38443;53.164;5.802;2022-11-20T08:22:49;15.45;;;7.25;;
52534;SDS011;38443;53.164;5.802;2022-11-20T08:25:15;12.35;;;7.75;;
52534;SDS011;38443;53.164;5.802;2022-11-20T08:27:40;12.63;;;6.63;;
52534;SDS011;38443;53.164;5.802;2022-11-20T08:32:31;12.40;;;6.65;;
52534;SDS011;38443;53.164;5.802;2022-11-20T08:34:56;14.55;;;6.35;;
52534;SDS011;38443;53.164;5.802;2022-11-20T08:37:21;14.50;;;7.40;;
52534;SDS011;38443;53.164;5.802;2022-11-20T08:42:12;10.88;;;5.88;;
52534;SDS011;38443;53.164;5.802;2022-11-20T08:44:37;15.43;;;7.17;;
52534;SDS011;38443;53.164;5.802;2022-11-20T08:47:03;14.32;;;7.07;;
52534;SDS011;38443;53.164;5.802;2022-11-20T08:49:28;13.57;;;6.63;;
52534;SDS011;38443;53.164;5.802;2022-11-20T08:51:53;13.27;;;7.63;;
52534;SDS011;38443;53.164;5.802;2022-11-20T08:54:20;15.60;;;6.75;;
52534;SDS011;38443;53.164;5.802;2022-11-20T08:56:47;13.80;;;7.22;;
52534;SDS011;38443;53.164;5.802;2022-11-20T08:59:12;13.75;;;7.38;;
52534;SDS011;38443;53.164;5.802;2022-11-20T09:04:04;14.90;;;9.02;;
52534;SDS011;38443;53.164;5.802;2022-11-20T09:06:30;14.63;;;7.40;;
52534;SDS011;38443;53.164;5.802;2022-11-20T09:11:21;13.07;;;7.00;;
52534;SDS011;38443;53.164;5.802;2022-11-20T09:13:47;15.70;;;6.60;;
52534;SDS011;38443;53.164;5.802;2022-11-20T09:18:37;12.15;;;7.00;;
52534;SDS011;38443;53.164;5.802;2022-11-20T09:23:31;15.98;;;8.00;;
52534;SDS011;38443;53.164;5.802;2022-11-20T09:26:01;15.77;;;7.30;;
52534;SDS011;38443;53.164;5.802;2022-11-20T09:28:28;17.02;;;7.47;;
52534;SDS011;38443;53.164;5.802;2022-11-20T09:30:53;16.15;;;7.22;;
52534;SDS011;38443;53.164;5.802;2022-11-20T09:33:18;16.88;;;8.20;;
52534;SDS011;38443;53.164;5.802;2022-11-20T09:38:09;15.10;;;8.30;;
52534;SDS011;38443;53.164;5.802;2022-11-20T09:40:37;12.07;;;7.15;;
52534;SDS011;38443;53.164;5.802;2022-11-20T09:45:46;14.65;;;7.22;;
52534;SDS011;38443;53.164;5.802;2022-11-20T09:51:09;15.82;;;7.85;;
52534;SDS011;38443;53.164;5.802;2022-11-20T09:53:48;15.30;;;7.50;;
52534;SDS011;38443;53.164;5.802;2022-11-20T09:56:17;15.00;;;7.22;;
52534;SDS011;38443;53.164;5.802;2022-11-20T09:58:45;14.98;;;7.13;;
52534;SDS011;38443;53.164;5.802;2022-11-20T10:01:19;15.88;;;7.00;;
52534;SDS011;38443;53.164;5.802;2022-11-20T10:06:44;14.40;;;7.43;;
52534;SDS011;38443;53.164;5.802;2022-11-20T10:09:28;14.35;;;6.65;;
52534;SDS011;38443;53.164;5.802;2022-11-20T10:20:16;14.23;;;6.88;;
52534;SDS011;38443;53.164;5.802;2022-11-20T10:23:00;13.63;;;7.38;;
52534;SDS011;38443;53.164;5.802;2022-11-20T10:25:47;17.80;;;7.72;;
52534;SDS011;38443;53.164;5.802;2022-11-20T10:30:57;13.02;;;7.35;;
52534;SDS011;38443;53.164;5.802;2022-11-20T10:33:40;9.15;;;5.63;;
52534;SDS011;38443;53.164;5.802;2022-11-20T10:36:12;14.07;;;6.70;;
52534;SDS011;38443;53.164;5.802;2022-11-20T10:38:47;11.90;;;6.05;;
52534;SDS011;38443;53.164;5.802;2022-11-20T10:41:20;12.25;;;6.60;;
52534;SDS011;38443;53.164;5.802;2022-11-20T10:44:04;13.10;;;6.38;;
52534;SDS011;38443;53.164;5.802;2022-11-20T10:46:38;15.05;;;6.53;;
52534;SDS011;38443;53.164;5.802;2022-11-20T10:49:16;8.70;;;6.32;;
52534;SDS011;38443;53.164;5.802;2022-11-20T10:51:51;12.80;;;7.70;;
52534;SDS011;38443;53.164;5.802;2022-11-20T10:54:41;7.93;;;5.32;;
52534;SDS011;38443;53.164;5.802;2022-11-20T10:57:20;10.13;;;5.85;;
52534;SDS011;38443;53.164;5.802;2022-11-20T11:00:01;11.15;;;6.40;;
52534;SDS011;38443;53.164;5.802;2022-11-20T11:02:32;11.70;;;5.40;;
52534;SDS011;38443;53.164;5.802;2022-11-20T11:05:16;10.38;;;5.90;;
52534;SDS011;38443;53.164;5.802;2022-11-20T11:07:49;10.93;;;5.60;;
52534;SDS011;38443;53.164;5.802;2022-11-20T11:10:19;12.50;;;5.68;;
52534;SDS011;38443;53.164;5.802;2022-11-20T11:12:49;11.38;;;5.72;;
52534;SDS011;38443;53.164;5.802;2022-11-20T11:15:24;10.40;;;5.72;;
52534;SDS011;38443;53.164;5.802;2022-11-20T11:17:50;8.77;;;4.65;;
52534;SDS011;38443;53.164;5.802;2022-11-20T11:22:49;13.55;;;6.15;;
52534;SDS011;38443;53.164;5.802;2022-11-20T11:25:25;9.52;;;4.88;;
52534;SDS011;38443;53.164;5.802;2022-11-20T11:27:57;9.52;;;4.65;;
52534;SDS011;38443;53.164;5.802;2022-11-20T11:30:24;7.45;;;4.15;;
52534;SDS011;38443;53.164;5.802;2022-11-20T11:32:50;6.13;;;4.00;;
52534;SDS011;38443;53.164;5.802;2022-11-20T11:35:28;7.05;;;3.97;;
52534;SDS011;38443;53.164;5.802;2022-11-20T11:37:54;6.30;;;4.18;;
52534;SDS011;38443;53.164;5.802;2022-11-20T11:40:28;9.30;;;4.20;;
52534;SDS011;38443;53.164;5.802;2022-11-20T11:42:56;7.63;;;4.10;;
52534;SDS011;38443;53.164;5.802;2022-11-20T11:45:24;8.05;;;3.80;;
52534;SDS011;38443;53.164;5.802;2022-11-20T11:47:50;8.98;;;4.95;;
52534;SDS011;38443;53.164;5.802;2022-11-20T11:50:18;7.47;;;3.95;;
52534;SDS011;38443;53.164;5.802;2022-11-20T11:52:56;6.57;;;3.80;;
52534;SDS011;38443;53.164;5.802;2022-11-20T11:55:35;10.75;;;4.03;;
52534;SDS011;38443;53.164;5.802;2022-11-20T11:58:12;8.90;;;3.95;;
52534;SDS011;38443;53.164;5.802;2022-11-20T12:00:46;7.60;;;3.80;;
52534;SDS011;38443;53.164;5.802;2022-11-20T12:03:36;7.13;;;3.88;;
52534;SDS011;38443;53.164;5.802;2022-11-20T12:06:09;7.07;;;4.13;;
52534;SDS011;38443;53.164;5.802;2022-11-20T12:08:48;8.77;;;4.38;;
52534;SDS011;38443;53.164;5.802;2022-11-20T12:11:21;7.60;;;4.32;;
52534;SDS011;38443;53.164;5.802;2022-11-20T12:13:58;5.53;;;3.72;;
52534;SDS011;38443;53.164;5.802;2022-11-20T12:16:30;7.38;;;4.32;;
52534;SDS011;38443;53.164;5.802;2022-11-20T12:19:00;5.95;;;3.60;;
52534;SDS011;38443;53.164;5.802;2022-11-20T12:24:15;7.60;;;4.20;;
52534;SDS011;38443;53.164;5.802;2022-11-20T12:26:55;7.38;;;3.88;;
52534;SDS011;38443;53.164;5.802;2022-11-20T12:29:38;7.97;;;4.50;;
52534;SDS011;38443;53.164;5.802;2022-11-20T12:40:17;7.05;;;4.55;;
52534;SDS011;38443;53.164;5.802;2022-11-20T12:43:00;7.78;;;3.80;;
52534;SDS011;38443;53.164;5.802;2022-11-20T12:56:47;8.18;;;4.30;;
52534;SDS011;38443;53.164;5.802;2022-11-20T13:02:35;7.47;;;4.00;;
52534;SDS011;38443;53.164;5.802;2022-11-20T13:05:16;7.35;;;4.10;;
52534;SDS011;38443;53.164;5.802;2022-11-20T13:07:45;5.97;;;3.75;;
52534;SDS011;38443;53.164;5.802;2022-11-20T13:10:20;8.75;;;4.35;;
52534;SDS011;38443;53.164;5.802;2022-11-20T13:12:59;8.90;;;4.93;;
52534;SDS011;38443;53.164;5.802;2022-11-20T13:15:40;6.68;;;3.92;;
52534;SDS011;38443;53.164;5.802;2022-11-20T13:18:13;8.80;;;4.75;;
52534;SDS011;38443;53.164;5.802;2022-11-20T13:23:09;7.55;;;4.18;;
52534;SDS011;38443;53.164;5.802;2022-11-20T13:25:35;10.60;;;5.20;;
52534;SDS011;38443;53.164;5.802;2022-11-20T13:30:34;10.23;;;4.60;;
52534;SDS011;38443;53.164;5.802;2022-11-20T13:33:22;11.13;;;5.30;;
52534;SDS011;38443;53.164;5.802;2022-11-20T13:35:57;8.10;;;5.13;;
52534;SDS011;38443;53.164;5.802;2022-11-20T13:38:51;8.90;;;5.00;;
52534;SDS011;38443;53.164;5.802;2022-11-20T13:41:31;8.90;;;5.28;;
52534;SDS011;38443;53.164;5.802;2022-11-20T13:46:46;9.18;;;4.47;;
52534;SDS011;38443;53.164;5.802;2022-11-20T13:51:50;7.28;;;4.15;;
52534;SDS011;38443;53.164;5.802;2022-11-20T13:54:27;11.25;;;5.22;;
52534;SDS011;38443;53.164;5.802;2022-11-20T14:00:17;6.47;;;4.72;;
52534;SDS011;38443;53.164;5.802;2022-11-20T14:02:48;7.85;;;5.10;;
52534;SDS011;38443;53.164;5.802;2022-11-20T14:05:49;10.93;;;5.35;;
52534;SDS011;38443;53.164;5.802;2022-11-20T14:08:31;7.68;;;5.18;;
52534;SDS011;38443;53.164;5.802;2022-11-20T14:11:12;7.18;;;4.20;;
52534;SDS011;38443;53.164;5.802;2022-11-20T14:14:03;7.22;;;4.88;;
52534;SDS011;38443;53.164;5.802;2022-11-20T14:16:38;9.88;;;4.47;;
52534;SDS011;38443;53.164;5.802;2022-11-20T14:21:45;9.18;;;4.25;;
52534;SDS011;38443;53.164;5.802;2022-11-20T14:24:11;10.65;;;4.95;;
52534;SDS011;38443;53.164;5.802;2022-11-20T14:26:38;9.15;;;5.13;;
52534;SDS011;38443;53.164;5.802;2022-11-20T14:32:03;9.32;;;4.72;;
52534;SDS011;38443;53.164;5.802;2022-11-20T14:34:30;7.38;;;4.63;;
52534;SDS011;38443;53.164;5.802;2022-11-20T14:36:58;8.73;;;4.65;;
52534;SDS011;38443;53.164;5.802;2022-11-20T14:42:01;7.07;;;4.78;;
52534;SDS011;38443;53.164;5.802;2022-11-20T14:44:34;11.60;;;5.07;;
52534;SDS011;38443;53.164;5.802;2022-11-20T14:47:02;9.98;;;5.43;;
52534;SDS011;38443;53.164;5.802;2022-11-20T14:49:29;9.02;;;4.55;;
52534;SDS011;38443;53.164;5.802;2022-11-20T14:52:00;10.55;;;5.40;;
52534;SDS011;38443;53.164;5.802;2022-11-20T14:54:58;9.90;;;5.05;;
52534;SDS011;38443;53.164;5.802;2022-11-20T14:57:42;9.95;;;5.00;;
52534;SDS011;38443;53.164;5.802;2022-11-20T15:00:18;7.68;;;5.03;;
52534;SDS011;38443;53.164;5.802;2022-11-20T15:02:50;10.32;;;5.10;;
52534;SDS011;38443;53.164;5.802;2022-11-20T15:05:19;7.03;;;4.30;;
52534;SDS011;38443;53.164;5.802;2022-11-20T15:07:46;8.52;;;4.90;;
52534;SDS011;38443;53.164;5.802;2022-11-20T15:10:22;8.93;;;4.85;;
52534;SDS011;38443;53.164;5.802;2022-11-20T15:12:52;9.30;;;4.93;;
52534;SDS011;38443;53.164;5.802;2022-11-20T15:15:21;8.73;;;4.50;;
52534;SDS011;38443;53.164;5.802;2022-11-20T15:17:52;7.47;;;4.25;;
52534;SDS011;38443;53.164;5.802;2022-11-20T15:22:43;10.48;;;5.47;;
52534;SDS011;38443;53.164;5.802;2022-11-20T15:27:41;9.85;;;4.82;;
52534;SDS011;38443;53.164;5.802;2022-11-20T15:30:17;6.60;;;4.63;;
52534;SDS011;38443;53.164;5.802;2022-11-20T15:32:44;8.50;;;4.75;;
52534;SDS011;38443;53.164;5.802;2022-11-20T15:35:11;8.02;;;4.88;;
52534;SDS011;38443;53.164;5.802;2022-11-20T15:37:36;7.50;;;5.05;;
52534;SDS011;38443;53.164;5.802;2022-11-20T15:40:03;9.45;;;4.55;;
52534;SDS011;38443;53.164;5.802;2022-11-20T15:44:54;7.80;;;4.38;;
52534;SDS011;38443;53.164;5.802;2022-11-20T15:47:20;10.18;;;5.35;;
52534;SDS011;38443;53.164;5.802;2022-11-20T15:49:51;6.32;;;4.78;;
52534;SDS011;38443;53.164;5.802;2022-11-20T15:52:16;9.13;;;3.92;;
52534;SDS011;38443;53.164;5.802;2022-11-20T15:54:42;8.82;;;5.03;;
52534;SDS011;38443;53.164;5.802;2022-11-20T15:57:07;9.63;;;5.85;;
52534;SDS011;38443;53.164;5.802;2022-11-20T15:59:32;10.07;;;4.50;;
52534;SDS011;38443;53.164;5.802;2022-11-20T16:01:59;7.00;;;4.03;;
52534;SDS011;38443;53.164;5.802;2022-11-20T16:04:24;7.45;;;4.28;;
52534;SDS011;38443;53.164;5.802;2022-11-20T16:06:50;9.75;;;5.97;;
52534;SDS011;38443;53.164;5.802;2022-11-20T16:09:15;8.70;;;5.60;;
52534;SDS011;38443;53.164;5.802;2022-11-20T16:11:40;9.00;;;5.55;;
52534;SDS011;38443;53.164;5.802;2022-11-20T16:14:06;10.32;;;6.15;;
52534;SDS011;38443;53.164;5.802;2022-11-20T16:16:49;11.50;;;5.68;;
52534;SDS011;38443;53.164;5.802;2022-11-20T16:19:16;8.05;;;5.13;;
52534;SDS011;38443;53.164;5.802;2022-11-20T16:21:42;11.07;;;5.55;;
52534;SDS011;38443;53.164;5.802;2022-11-20T16:24:09;10.75;;;5.10;;
52534;SDS011;38443;53.164;5.802;2022-11-20T16:26:36;9.00;;;5.35;;
52534;SDS011;38443;53.164;5.802;2022-11-20T16:29:02;10.02;;;5.60;;
52534;SDS011;38443;53.164;5.802;2022-11-20T16:31:30;10.65;;;5.93;;
52534;SDS011;38443;53.164;5.802;2022-11-20T16:33:56;8.48;;;5.50;;
52534;SDS011;38443;53.164;5.802;2022-11-20T16:36:24;12.88;;;6.57;;
52534;SDS011;38443;53.164;5.802;2022-11-20T16:38:57;9.68;;;6.45;;
52534;SDS011;38443;53.164;5.802;2022-11-20T16:41:24;10.93;;;5.80;;
52534;SDS011;38443;53.164;5.802;2022-11-20T16:43:54;9.95;;;5.70;;
52534;SDS011;38443;53.164;5.802;2022-11-20T16:46:22;13.25;;;6.00;;
52534;SDS011;38443;53.164;5.802;2022-11-20T16:48:52;9.73;;;5.78;;
52534;SDS011;38443;53.164;5.802;2022-11-20T16:51:19;14.73;;;6.75;;
52534;SDS011;38443;53.164;5.802;2022-11-20T16:53:44;10.25;;;6.30;;
52534;SDS011;38443;53.164;5.802;2022-11-20T16:56:14;13.25;;;6.47;;
52534;SDS011;38443;53.164;5.802;2022-11-20T16:58:41;15.43;;;6.90;;
52534;SDS011;38443;53.164;5.802;2022-11-20T17:01:09;9.70;;;6.28;;
52534;SDS011;38443;53.164;5.802;2022-11-20T17:03:37;13.82;;;8.25;;
52534;SDS011;38443;53.164;5.802;2022-11-20T17:06:14;14.50;;;7.57;;
52534;SDS011;38443;53.164;5.802;2022-11-20T17:08:40;13.55;;;7.47;;
52534;SDS011;38443;53.164;5.802;2022-11-20T17:11:07;12.40;;;7.03;;
52534;SDS011;38443;53.164;5.802;2022-11-20T17:13:34;15.70;;;7.50;;
52534;SDS011;38443;53.164;5.802;2022-11-20T17:16:03;11.13;;;7.13;;
52534;SDS011;38443;53.164;5.802;2022-11-20T17:18:33;14.68;;;7.13;;
52534;SDS011;38443;53.164;5.802;2022-11-20T17:20:59;13.80;;;7.43;;
52534;SDS011;38443;53.164;5.802;2022-11-20T17:23:29;12.38;;;7.70;;
52534;SDS011;38443;53.164;5.802;2022-11-20T17:26:03;16.02;;;7.03;;
52534;SDS011;38443;53.164;5.802;2022-11-20T17:28:38;12.60;;;7.55;;
52534;SDS011;38443;53.164;5.802;2022-11-20T17:31:08;15.30;;;7.78;;
52534;SDS011;38443;53.164;5.802;2022-11-20T17:33:36;13.80;;;7.35;;
52534;SDS011;38443;53.164;5.802;2022-11-20T17:36:04;12.45;;;8.05;;
52534;SDS011;38443;53.164;5.802;2022-11-20T17:38:31;13.73;;;7.32;;
52534;SDS011;38443;53.164;5.802;2022-11-20T17:43:32;13.23;;;8.20;;
52534;SDS011;38443;53.164;5.802;2022-11-20T17:46:03;14.90;;;7.38;;
52534;SDS011;38443;53.164;5.802;2022-11-20T17:48:32;12.95;;;7.07;;
52534;SDS011;38443;53.164;5.802;2022-11-20T17:53:25;14.20;;;7.63;;